createdAt,value
2017-09-01T00:00:14.633Z,101017.38
2017-09-01T00:01:21.670Z,101011.39
2017-09-01T00:02:28.528Z,101012.16
2017-09-01T00:03:35.702Z,101015.13
2017-09-01T00:04:42.490Z,101011.99
2017-09-01T00:05:48.546Z,101006.94
2017-09-01T00:06:55.392Z,101008.59
2017-09-01T00:08:01.468Z,101015.45
2017-09-01T00:09:08.245Z,101016.78
2017-09-01T00:10:15.416Z,101020.85
2017-09-01T00:11:21.301Z,101020.22
2017-09-01T00:12:27.351Z,101021.05
2017-09-01T00:13:33.413Z,101014.41
2017-09-01T00:14:39.536Z,101017.74
2017-09-01T00:15:45.707Z,101021.38
2017-09-01T00:16:51.784Z,101014.34
2017-09-01T00:17:57.920Z,101011.47
2017-09-01T00:19:04.061Z,101014.94
2017-09-01T00:20:12.103Z,101011.16
2017-09-01T00:21:18.269Z,101015.27
2017-09-01T00:22:24.828Z,101008.16
2017-09-01T00:23:31.185Z,101017.84
2017-09-01T00:24:37.243Z,101009.12
2017-09-01T00:25:43.306Z,101012.12
2017-09-01T00:26:49.401Z,101009.70
2017-09-01T00:27:56.956Z,101006.17
2017-09-01T00:29:02.990Z,101011.03
2017-09-01T00:30:09.528Z,101012.72
2017-09-01T00:31:15.398Z,101012.06
2017-09-01T00:32:21.464Z,101013.88
2017-09-01T00:33:27.564Z,101015.36
2017-09-01T00:34:33.747Z,101004.79
2017-09-01T00:35:39.859Z,101006.21
2017-09-01T00:36:45.974Z,101005.45
2017-09-01T00:37:52.815Z,101007.73
2017-09-01T00:38:58.929Z,101004.42
2017-09-01T00:40:04.995Z,101002.05
2017-09-01T00:41:12.436Z,101004.82
2017-09-01T00:42:18.183Z,101004.20
2017-09-01T00:43:24.285Z,101004.26
2017-09-01T00:44:30.485Z,101000.79
2017-09-01T00:45:37.426Z,101002.41
2017-09-01T00:46:43.496Z,101000.83
2017-09-01T00:47:49.542Z,100996.27
2017-09-01T00:48:55.676Z,100996.27
2017-09-01T00:50:02.241Z,100993.36
2017-09-01T00:51:07.963Z,100994.44
2017-09-01T00:52:14.100Z,100993.85
2017-09-01T00:53:21.155Z,100991.04
2017-09-01T00:54:28.257Z,100993.32
2017-09-01T00:55:35.701Z,100993.69
2017-09-01T00:56:41.182Z,100989.91
2017-09-01T00:57:47.422Z,100991.08
2017-09-01T00:58:54.241Z,100983.41
2017-09-01T01:00:01.383Z,100992.23
2017-09-01T01:01:07.660Z,100984.66
2017-09-01T01:02:13.835Z,100990.38
2017-09-01T01:03:20.106Z,100985.63
2017-09-01T01:04:25.904Z,100984.89
2017-09-01T01:05:32.081Z,100990.88
2017-09-01T01:06:38.158Z,100992.25
2017-09-01T01:07:44.392Z,100998.56
2017-09-01T01:08:50.838Z,100995.04
2017-09-01T01:09:56.999Z,100991.03
2017-09-01T01:11:02.213Z,100995.66
2017-09-01T01:12:08.127Z,101000.61
2017-09-01T01:13:14.291Z,100997.47
2017-09-01T01:14:20.382Z,100995.02
2017-09-01T01:15:26.346Z,100993.13
2017-09-01T01:16:32.697Z,100992.03
2017-09-01T01:17:38.631Z,100994.69
2017-09-01T01:18:44.361Z,100997.01
2017-09-01T01:19:49.577Z,100998.02
2017-09-01T01:20:54.904Z,101001.58
2017-09-01T01:22:00.094Z,101001.08
2017-09-01T01:23:05.440Z,101001.14
2017-09-01T01:24:11.522Z,101008.00
2017-09-01T01:25:17.847Z,101004.05
2017-09-01T01:26:23.982Z,101010.36
2017-09-01T01:27:29.349Z,101003.93
2017-09-01T01:28:35.661Z,100999.45
2017-09-01T01:29:41.388Z,100999.73
2017-09-01T01:30:46.757Z,101004.86
2017-09-01T01:31:52.746Z,100999.75
2017-09-01T01:32:58.369Z,101006.52
2017-09-01T01:34:03.757Z,101001.98
2017-09-01T01:35:08.895Z,101003.59
2017-09-01T01:36:14.216Z,101000.91
2017-09-01T01:37:19.635Z,101002.05
2017-09-01T01:38:25.084Z,100999.09
2017-09-01T01:39:31.137Z,101004.20
2017-09-01T01:40:36.676Z,101008.41
2017-09-01T01:41:42.777Z,101006.91
2017-09-01T01:42:48.552Z,101003.66
2017-09-01T01:43:54.471Z,101011.31
2017-09-01T01:45:00.292Z,101012.47
2017-09-01T01:46:06.759Z,101016.22
2017-09-01T01:47:12.099Z,101012.72
2017-09-01T01:48:17.607Z,101011.92
2017-09-01T01:49:23.410Z,101010.95
2017-09-01T01:50:28.958Z,101016.66
2017-09-01T01:51:34.734Z,101011.03
2017-09-01T01:52:41.196Z,101006.73
2017-09-01T01:53:46.511Z,101009.08
2017-09-01T01:54:54.976Z,101008.17
2017-09-01T01:56:00.163Z,100999.77
2017-09-01T01:57:06.162Z,101000.02
2017-09-01T01:58:11.535Z,100998.77
2017-09-01T01:59:17.239Z,100995.54
2017-09-01T02:00:23.199Z,101000.97
2017-09-01T02:01:28.546Z,100997.91
2017-09-01T02:02:34.025Z,101001.12
2017-09-01T02:03:40.066Z,100994.52
2017-09-01T02:04:45.463Z,100996.92
2017-09-01T02:05:51.960Z,100998.45
2017-09-01T02:06:58.528Z,100995.81
2017-09-01T02:08:03.745Z,100998.27
2017-09-01T02:09:09.431Z,100997.84
2017-09-01T02:10:16.003Z,101001.44
2017-09-01T02:11:22.892Z,100999.13
2017-09-01T02:12:28.975Z,100995.45
2017-09-01T02:13:35.542Z,100997.41
2017-09-01T02:14:41.213Z,100997.41
2017-09-01T02:15:47.451Z,100996.52
2017-09-01T02:16:53.548Z,100998.42
2017-09-01T02:17:59.963Z,100999.37
2017-09-01T02:19:06.597Z,101001.44
2017-09-01T02:20:11.797Z,101000.75
2017-09-01T02:21:18.162Z,101004.38
2017-09-01T02:22:24.350Z,100995.54
2017-09-01T02:23:29.599Z,100998.27
2017-09-01T02:24:35.451Z,101004.44
2017-09-01T02:25:40.874Z,101000.36
2017-09-01T02:26:46.247Z,100997.97
2017-09-01T02:27:52.048Z,100997.84
2017-09-01T02:28:59.319Z,100994.52
2017-09-01T02:30:04.654Z,100995.34
2017-09-01T02:31:10.909Z,100993.54
2017-09-01T02:32:16.612Z,100998.36
2017-09-01T02:33:22.724Z,100996.42
2017-09-01T02:34:29.703Z,100995.53
2017-09-01T02:35:35.833Z,100995.44
2017-09-01T02:36:44.026Z,100999.33
2017-09-01T02:37:51.599Z,101000.49
2017-09-01T02:38:57.660Z,101002.98
2017-09-01T02:40:03.435Z,101002.05
2017-09-01T02:41:10.753Z,101003.39
2017-09-01T02:42:16.123Z,101005.94
2017-09-01T02:43:22.475Z,101000.53
2017-09-01T02:44:28.055Z,101012.47
2017-09-01T02:45:35.326Z,101004.30
2017-09-01T02:46:40.702Z,101006.36
2017-09-01T02:47:47.080Z,101006.35
2017-09-01T02:48:52.870Z,101007.33
2017-09-01T02:49:58.823Z,101004.50
2017-09-01T02:51:04.273Z,101006.80
2017-09-01T02:52:09.697Z,101010.69
2017-09-01T02:53:16.173Z,101011.52
2017-09-01T02:54:22.289Z,101009.70
2017-09-01T02:55:27.767Z,101011.72
2017-09-01T02:56:33.116Z,101000.85
2017-09-01T02:57:39.512Z,101005.05
2017-09-01T02:58:45.533Z,101003.97
2017-09-01T02:59:51.579Z,101008.17
2017-09-01T03:00:56.972Z,101008.57
2017-09-01T03:02:03.241Z,101007.47
2017-09-01T03:03:08.425Z,101007.50
2017-09-01T03:04:13.766Z,101006.33
2017-09-01T03:05:21.328Z,101007.19
2017-09-01T03:06:26.724Z,101006.30
2017-09-01T03:07:32.907Z,101006.15
2017-09-01T03:08:38.883Z,101009.73
2017-09-01T03:09:45.679Z,101002.32
2017-09-01T03:10:51.446Z,101005.06
2017-09-01T03:11:58.499Z,101003.52
2017-09-01T03:13:03.965Z,101002.89
2017-09-01T03:14:10.290Z,101003.41
2017-09-01T03:15:15.706Z,101008.35
2017-09-01T03:16:21.584Z,101008.92
2017-09-01T03:17:26.979Z,101007.67
2017-09-01T03:18:33.333Z,101006.05
2017-09-01T03:19:38.883Z,101010.72
2017-09-01T03:20:44.829Z,101009.71
2017-09-01T03:21:51.501Z,101010.63
2017-09-01T03:22:57.791Z,101011.89
2017-09-01T03:24:04.921Z,101015.12
2017-09-01T03:25:11.097Z,101014.46
2017-09-01T03:26:17.956Z,101016.30
2017-09-01T03:27:24.297Z,101012.52
2017-09-01T03:28:29.501Z,101017.05
2017-09-01T03:29:34.856Z,101016.41
2017-09-01T03:30:40.506Z,101024.22
2017-09-01T03:31:46.877Z,101024.59
2017-09-01T03:32:53.246Z,101019.73
2017-09-01T03:33:58.842Z,101028.46
2017-09-01T03:35:04.188Z,101026.36
2017-09-01T03:36:11.902Z,101022.23
2017-09-01T03:37:17.474Z,101026.28
2017-09-01T03:38:23.405Z,101028.72
2017-09-01T03:39:28.796Z,101031.47
2017-09-01T03:40:34.320Z,101025.39
2017-09-01T03:41:39.799Z,101026.45
2017-09-01T03:42:45.292Z,101023.30
2017-09-01T03:43:50.743Z,101026.65
2017-09-01T03:44:56.242Z,101027.77
2017-09-01T03:46:01.506Z,101024.73
2017-09-01T03:47:07.091Z,101020.80
2017-09-01T03:48:12.823Z,101023.39
2017-09-01T03:49:18.587Z,101020.75
2017-09-01T03:50:24.339Z,101022.61
2017-09-01T03:51:30.000Z,101026.87
2017-09-01T03:52:36.148Z,101027.17
2017-09-01T03:53:50.904Z,101028.28
2017-09-01T03:55:02.176Z,101023.15
2017-09-01T03:56:08.975Z,101023.63
2017-09-01T03:57:14.822Z,101023.58
2017-09-01T03:58:28.963Z,101029.75
2017-09-01T03:59:48.992Z,101029.31
2017-09-01T04:01:02.000Z,101034.19
2017-09-01T04:02:11.017Z,101028.57
2017-09-01T04:03:16.849Z,101027.83
2017-09-01T04:04:23.207Z,101029.75
2017-09-01T04:05:29.345Z,101033.89
2017-09-01T04:06:35.489Z,101029.45
2017-09-01T04:07:41.804Z,101034.58
2017-09-01T04:08:47.915Z,101040.40
2017-09-01T04:09:53.722Z,101035.16
2017-09-01T04:11:02.029Z,101035.89
2017-09-01T04:12:08.532Z,101034.03
2017-09-01T04:13:14.909Z,101034.03
2017-09-01T04:14:21.084Z,101035.05
2017-09-01T04:15:27.638Z,101032.70
2017-09-01T04:16:33.760Z,101032.16
2017-09-01T04:17:39.732Z,101030.39
2017-09-01T04:18:45.913Z,101033.14
2017-09-01T04:19:52.200Z,101035.63
2017-09-01T04:20:59.565Z,101035.80
2017-09-01T04:22:06.595Z,101033.27
2017-09-01T04:23:12.845Z,101039.56
2017-09-01T04:24:18.847Z,101041.77
2017-09-01T04:25:25.140Z,101040.17
2017-09-01T04:26:31.352Z,101044.45
2017-09-01T04:27:38.377Z,101043.92
2017-09-01T04:28:45.805Z,101043.05
2017-09-01T04:29:51.689Z,101047.97
2017-09-01T04:30:57.527Z,101050.28
2017-09-01T04:32:03.367Z,101051.44
2017-09-01T04:33:10.361Z,101050.72
2017-09-01T04:34:16.780Z,101047.58
2017-09-01T04:35:22.861Z,101050.20
2017-09-01T04:36:29.305Z,101042.78
2017-09-01T04:37:37.464Z,101041.31
2017-09-01T04:38:43.722Z,101049.38
2017-09-01T04:39:49.830Z,101048.97
2017-09-01T04:40:55.176Z,101051.74
2017-09-01T04:42:00.575Z,101051.28
2017-09-01T04:43:05.990Z,101051.66
2017-09-01T04:44:11.739Z,101054.42
2017-09-01T04:45:17.838Z,101045.55
2017-09-01T04:46:25.060Z,101044.47
2017-09-01T04:47:31.144Z,101046.66
2017-09-01T04:48:37.326Z,101045.55
2017-09-01T04:49:43.401Z,101046.94
2017-09-01T04:50:49.538Z,101044.30
2017-09-01T04:51:55.667Z,101036.59
2017-09-01T04:53:01.379Z,101038.78
2017-09-01T04:54:07.617Z,101039.20
2017-09-01T04:55:13.925Z,101041.04
2017-09-01T04:56:19.869Z,101043.09
2017-09-01T04:57:25.997Z,101043.78
2017-09-01T04:58:32.860Z,101047.59
2017-09-01T04:59:38.967Z,101047.65
2017-09-01T05:00:44.430Z,101047.19
2017-09-01T05:01:50.566Z,101049.91
2017-09-01T05:02:56.797Z,101055.84
2017-09-01T05:04:03.571Z,101054.66
2017-09-01T05:05:09.778Z,101057.05
2017-09-01T05:06:15.626Z,101052.05
2017-09-01T05:07:21.813Z,101051.59
2017-09-01T05:08:27.264Z,101048.47
2017-09-01T05:09:33.387Z,101043.28
2017-09-01T05:10:39.596Z,101043.66
2017-09-01T05:11:46.000Z,101050.00
2017-09-01T05:12:51.837Z,101048.77
2017-09-01T05:13:58.031Z,101045.80
2017-09-01T05:15:03.766Z,101045.95
2017-09-01T05:16:10.625Z,101048.20
2017-09-01T05:17:16.706Z,101045.91
2017-09-01T05:18:22.911Z,101049.78
2017-09-01T05:19:29.122Z,101060.63
2017-09-01T05:20:35.274Z,101059.60
2017-09-01T05:21:41.026Z,101059.02
2017-09-01T05:22:47.144Z,101056.78
2017-09-01T05:23:53.339Z,101054.02
2017-09-01T05:24:59.555Z,101052.72
2017-09-01T05:26:06.883Z,101047.81
2017-09-01T05:27:12.952Z,101055.88
2017-09-01T05:28:19.451Z,101055.87
2017-09-01T05:29:26.134Z,101053.17
2017-09-01T05:30:31.906Z,101050.78
2017-09-01T05:31:39.861Z,101058.32
2017-09-01T05:32:45.982Z,101060.84
2017-09-01T05:33:52.772Z,101056.83
2017-09-01T05:34:59.022Z,101055.68
2017-09-01T05:36:05.080Z,101056.66
2017-09-01T05:37:11.956Z,101057.80
2017-09-01T05:38:18.048Z,101058.61
2017-09-01T05:39:24.927Z,101063.59
2017-09-01T05:40:33.037Z,101065.63
2017-09-01T05:41:39.164Z,101071.63
2017-09-01T05:42:45.278Z,101068.05
2017-09-01T05:43:51.575Z,101071.63
2017-09-01T05:44:57.712Z,101071.53
2017-09-01T05:46:03.851Z,101071.51
2017-09-01T05:47:09.920Z,101077.13
2017-09-01T05:48:17.016Z,101077.17
2017-09-01T05:49:23.810Z,101080.74
2017-09-01T05:50:30.891Z,101076.07
2017-09-01T05:51:37.312Z,101078.00
2017-09-01T05:52:43.469Z,101080.29
2017-09-01T05:53:49.633Z,101076.63
2017-09-01T05:54:55.809Z,101079.20
2017-09-01T05:56:02.137Z,101075.30
2017-09-01T05:57:08.043Z,101082.06
2017-09-01T05:58:14.119Z,101084.14
2017-09-01T05:59:21.281Z,101078.16
2017-09-01T06:00:28.469Z,101086.88
2017-09-01T06:01:34.881Z,101078.59
2017-09-01T06:02:42.243Z,101075.03
2017-09-01T06:03:48.328Z,101075.74
2017-09-01T06:04:55.077Z,101077.00
2017-09-01T06:06:01.222Z,101074.36
2017-09-01T06:07:07.312Z,101083.88
2017-09-01T06:08:13.471Z,101083.39
2017-09-01T06:09:20.289Z,101086.21
2017-09-01T06:10:26.370Z,101085.35
2017-09-01T06:11:32.488Z,101081.02
2017-09-01T06:12:38.600Z,101079.94
2017-09-01T06:13:44.836Z,101075.39
2017-09-01T06:14:50.822Z,101073.94
2017-09-01T06:15:57.013Z,101074.75
2017-09-01T06:17:03.216Z,101075.90
2017-09-01T06:18:09.318Z,101073.95
2017-09-01T06:19:15.465Z,101077.70
2017-09-01T06:20:21.725Z,101073.44
2017-09-01T06:21:28.405Z,101073.02
2017-09-01T06:22:34.004Z,101074.72
2017-09-01T06:23:40.080Z,101071.22
2017-09-01T06:24:46.333Z,101071.23
2017-09-01T06:25:53.012Z,101078.51
2017-09-01T06:26:59.192Z,101076.23
2017-09-01T06:28:05.319Z,101076.27
2017-09-01T06:29:12.551Z,101072.70
2017-09-01T06:30:18.672Z,101069.39
2017-09-01T06:31:24.742Z,101069.59
2017-09-01T06:32:30.886Z,101071.52
2017-09-01T06:33:36.963Z,101074.32
2017-09-01T06:34:43.092Z,101068.91
2017-09-01T06:35:49.174Z,101069.35
2017-09-01T06:36:55.265Z,101070.25
2017-09-01T06:38:01.209Z,101068.86
2017-09-01T06:39:07.273Z,101074.24
2017-09-01T06:40:15.831Z,101075.73
2017-09-01T06:41:21.991Z,101080.85
2017-09-01T06:42:29.834Z,101076.19
2017-09-01T06:43:36.598Z,101071.22
2017-09-01T06:44:42.719Z,101074.72
2017-09-01T06:45:49.391Z,101072.80
2017-09-01T06:46:55.619Z,101072.80
2017-09-01T06:48:02.804Z,101077.36
2017-09-01T06:49:09.076Z,101069.83
2017-09-01T06:50:15.259Z,101085.22
2017-09-01T06:51:21.725Z,101079.30
2017-09-01T06:52:27.802Z,101077.41
2017-09-01T06:53:33.973Z,101077.15
2017-09-01T06:54:41.193Z,101074.01
2017-09-01T06:55:47.301Z,101074.84
2017-09-01T06:56:53.576Z,101068.09
2017-09-01T06:57:59.844Z,101075.59
2017-09-01T06:59:07.014Z,101072.25
2017-09-01T07:00:13.150Z,101072.98
2017-09-01T07:01:19.779Z,101074.17
2017-09-01T07:02:26.494Z,101073.91
2017-09-01T07:03:33.341Z,101067.59
2017-09-01T07:04:39.502Z,101069.05
2017-09-01T07:05:45.562Z,101064.81
2017-09-01T07:06:51.719Z,101063.86
2017-09-01T07:07:58.749Z,101059.45
2017-09-01T07:09:04.174Z,101059.97
2017-09-01T07:10:10.811Z,101058.77
2017-09-01T07:11:17.630Z,101054.17
2017-09-01T07:12:23.671Z,101054.79
2017-09-01T07:13:30.258Z,101049.97
2017-09-01T07:14:37.268Z,101048.09
2017-09-01T07:15:44.491Z,101049.60
2017-09-01T07:16:50.573Z,101046.94
2017-09-01T07:17:56.680Z,101044.82
2017-09-01T07:19:02.855Z,101041.09
2017-09-01T07:20:08.905Z,101041.39
2017-09-01T07:21:15.094Z,101039.22
2017-09-01T07:22:21.902Z,101040.52
2017-09-01T07:23:27.835Z,101044.39
2017-09-01T07:24:33.942Z,101043.64
2017-09-01T07:25:40.586Z,101036.30
2017-09-01T07:26:46.963Z,101040.98
2017-09-01T07:27:53.119Z,101043.14
2017-09-01T07:28:59.798Z,101044.72
2017-09-01T07:30:05.945Z,101042.88
2017-09-01T07:31:12.064Z,101042.50
2017-09-01T07:32:17.875Z,101041.09
2017-09-01T07:33:24.020Z,101045.94
2017-09-01T07:34:30.143Z,101047.73
2017-09-01T07:35:36.815Z,101041.97
2017-09-01T07:36:43.155Z,101040.65
2017-09-01T07:37:49.408Z,101039.91
2017-09-01T07:38:55.473Z,101033.35
2017-09-01T07:40:01.619Z,101031.49
2017-09-01T07:41:08.456Z,101037.90
2017-09-01T07:42:14.634Z,101034.39
2017-09-01T07:43:20.936Z,101039.93
2017-09-01T07:44:27.004Z,101041.18
2017-09-01T07:45:33.219Z,101042.95
2017-09-01T07:46:39.353Z,101039.45
2017-09-01T07:47:45.408Z,101044.07
2017-09-01T07:48:51.595Z,101031.77
2017-09-01T07:49:57.788Z,101036.31
2017-09-01T07:51:04.803Z,101029.13
2017-09-01T07:52:11.644Z,101034.44
2017-09-01T07:53:17.783Z,101029.19
2017-09-01T07:54:23.976Z,101039.65
2017-09-01T07:55:30.042Z,101029.27
2017-09-01T07:56:36.941Z,101038.09
2017-09-01T07:57:43.127Z,101040.70
2017-09-01T07:58:49.341Z,101044.51
2017-09-01T07:59:55.446Z,101044.51
2017-09-01T08:01:02.317Z,101044.58
2017-09-01T08:02:08.308Z,101047.59
2017-09-01T08:03:14.455Z,101052.00
2017-09-01T08:04:26.772Z,101058.77
2017-09-01T08:05:33.290Z,101056.33
2017-09-01T08:06:39.966Z,101054.48
2017-09-01T08:07:46.239Z,101056.06
2017-09-01T08:08:52.377Z,101063.94
2017-09-01T08:09:58.491Z,101060.12
2017-09-01T08:11:05.475Z,101067.18
2017-09-01T08:12:11.419Z,101064.78
2017-09-01T08:13:17.531Z,101069.81
2017-09-01T08:14:23.721Z,101068.34
2017-09-01T08:15:31.137Z,101060.61
2017-09-01T08:16:37.185Z,101063.84
2017-09-01T08:17:43.386Z,101059.88
2017-09-01T08:18:49.488Z,101062.27
2017-09-01T08:19:55.435Z,101057.91
2017-09-01T08:21:01.506Z,101057.77
2017-09-01T08:22:07.575Z,101049.81
2017-09-01T08:23:13.763Z,101060.69
2017-09-01T08:24:19.917Z,101052.52
2017-09-01T08:25:26.031Z,101057.39
2017-09-01T08:26:31.999Z,101050.12
2017-09-01T08:27:38.150Z,101050.82
2017-09-01T08:28:44.059Z,101049.97
2017-09-01T08:29:50.204Z,101056.80
2017-09-01T08:30:56.242Z,101052.16
2017-09-01T08:32:02.434Z,101055.44
2017-09-01T08:33:08.523Z,101054.86
2017-09-01T08:34:14.629Z,101055.56
2017-09-01T08:35:21.494Z,101053.23
2017-09-01T08:36:27.540Z,101057.64
2017-09-01T08:37:33.700Z,101058.20
2017-09-01T08:38:40.601Z,101064.16
2017-09-01T08:39:47.061Z,101056.88
2017-09-01T08:40:53.743Z,101057.97
2017-09-01T08:41:59.960Z,101059.20
2017-09-01T08:43:06.046Z,101057.20
2017-09-01T08:44:12.601Z,101055.75
2017-09-01T08:45:19.366Z,101051.95
2017-09-01T08:46:25.409Z,101052.91
2017-09-01T08:47:31.458Z,101061.97
2017-09-01T08:48:37.752Z,101060.94
2017-09-01T08:49:43.792Z,101064.20
2017-09-01T08:50:49.868Z,101056.16
2017-09-01T08:51:55.607Z,101058.70
2017-09-01T08:53:01.539Z,101060.22
2017-09-01T08:54:08.349Z,101059.59
2017-09-01T08:55:14.382Z,101061.70
2017-09-01T08:56:21.116Z,101061.48
2017-09-01T08:57:27.169Z,101061.17
2017-09-01T08:58:33.724Z,101059.91
2017-09-01T08:59:39.696Z,101060.94
2017-09-01T09:00:45.847Z,101063.09
2017-09-01T09:01:51.953Z,101058.44
2017-09-01T09:02:58.124Z,101063.58
2017-09-01T09:04:05.013Z,101065.30
2017-09-01T09:05:11.238Z,101061.11
2017-09-01T09:06:17.284Z,101057.75
2017-09-01T09:07:23.443Z,101058.36
2017-09-01T09:08:29.626Z,101058.17
2017-09-01T09:09:35.920Z,101055.75
2017-09-01T09:10:42.245Z,101062.40
2017-09-01T09:11:48.863Z,101061.50
2017-09-01T09:12:55.013Z,101060.44
2017-09-01T09:14:01.929Z,101065.18
2017-09-01T09:15:08.010Z,101067.45
2017-09-01T09:16:14.997Z,101068.35
2017-09-01T09:17:22.242Z,101073.12
2017-09-01T09:18:29.695Z,101070.30
2017-09-01T09:19:37.075Z,101069.01
2017-09-01T09:20:43.966Z,101069.48
2017-09-01T09:21:50.131Z,101065.59
2017-09-01T09:22:56.266Z,101069.34
2017-09-01T09:24:03.009Z,101062.06
2017-09-01T09:25:09.806Z,101073.23
2017-09-01T09:26:15.937Z,101072.84
2017-09-01T09:27:22.128Z,101068.73
2017-09-01T09:28:28.296Z,101074.77
2017-09-01T09:29:35.088Z,101068.44
2017-09-01T09:30:41.904Z,101064.60
2017-09-01T09:31:48.008Z,101070.58
2017-09-01T09:32:58.418Z,101066.30
2017-09-01T09:34:04.547Z,101066.58
2017-09-01T09:35:10.629Z,101064.09
2017-09-01T09:36:17.642Z,101062.09
2017-09-01T09:37:23.733Z,101063.35
2017-09-01T09:38:31.281Z,101058.59
2017-09-01T09:39:44.810Z,101060.11
2017-09-01T09:41:02.729Z,101059.34
2017-09-01T09:42:08.467Z,101061.95
2017-09-01T09:43:14.544Z,101065.53
2017-09-01T09:44:20.724Z,101061.29
2017-09-01T09:45:27.616Z,101059.22
2017-09-01T09:46:34.081Z,101060.77
2017-09-01T09:47:40.973Z,101056.05
2017-09-01T09:48:48.618Z,101050.13
2017-09-01T09:49:56.150Z,101049.97
2017-09-01T09:51:02.202Z,101053.05
2017-09-01T09:52:09.029Z,101053.98
2017-09-01T09:53:18.389Z,101050.32
2017-09-01T09:54:24.446Z,101047.16
2017-09-01T09:55:30.785Z,101046.58
2017-09-01T09:56:37.019Z,101048.77
2017-09-01T09:57:43.143Z,101046.96
2017-09-01T09:58:49.898Z,101055.20
2017-09-01T09:59:56.002Z,101050.52
2017-09-01T10:01:02.262Z,101050.05
2017-09-01T10:02:09.803Z,101048.41
2017-09-01T10:03:16.519Z,101044.70
2017-09-01T10:04:23.184Z,101044.95
2017-09-01T10:05:29.557Z,101035.33
2017-09-01T10:06:36.759Z,101037.64
2017-09-01T10:07:42.961Z,101036.86
2017-09-01T10:08:50.224Z,101035.26
2017-09-01T10:09:57.099Z,101039.86
2017-09-01T10:11:05.306Z,101033.54
2017-09-01T10:12:11.938Z,101041.47
2017-09-01T10:13:18.221Z,101042.48
2017-09-01T10:14:24.528Z,101036.16
2017-09-01T10:15:30.596Z,101038.73
2017-09-01T10:16:37.158Z,101036.08
2017-09-01T10:17:43.097Z,101036.16
2017-09-01T10:18:49.373Z,101034.83
2017-09-01T10:19:56.043Z,101033.11
2017-09-01T10:21:02.833Z,101031.01
2017-09-01T10:22:10.637Z,101033.59
2017-09-01T10:23:16.830Z,101037.23
2017-09-01T10:24:22.886Z,101036.16
2017-09-01T10:25:28.284Z,101041.67
2017-09-01T10:26:33.626Z,101036.57
2017-09-01T10:27:39.480Z,101041.53
2017-09-01T10:28:45.798Z,101040.16
2017-09-01T10:29:52.462Z,101042.59
2017-09-01T10:30:59.251Z,101035.73
2017-09-01T10:32:07.815Z,101041.23
2017-09-01T10:33:15.090Z,101044.94
2017-09-01T10:34:21.244Z,101045.72
2017-09-01T10:35:28.917Z,101049.47
2017-09-01T10:36:36.116Z,101048.86
2017-09-01T10:37:42.760Z,101045.88
2017-09-01T10:38:49.670Z,101042.89
2017-09-01T10:39:57.590Z,101052.49
2017-09-01T10:41:03.709Z,101051.38
2017-09-01T10:42:09.812Z,101050.20
2017-09-01T10:43:16.157Z,101051.43
2017-09-01T10:44:22.385Z,101042.64
2017-09-01T10:45:28.809Z,101045.88
2017-09-01T10:46:34.891Z,101040.25
2017-09-01T10:47:54.905Z,101045.83
2017-09-01T10:49:12.277Z,101046.33
2017-09-01T10:50:39.156Z,101043.45
2017-09-01T10:52:09.560Z,101048.33
2017-09-01T10:53:26.968Z,101048.29
2017-09-01T10:54:44.024Z,101045.83
2017-09-01T10:56:01.629Z,101048.92
2017-09-01T10:57:33.333Z,101048.18
2017-09-01T10:58:51.330Z,101048.83
2017-09-01T10:59:58.081Z,101048.05
2017-09-01T11:01:04.895Z,101044.50
2017-09-01T11:02:10.944Z,101047.31
2017-09-01T11:03:17.053Z,101041.66
2017-09-01T11:04:23.705Z,101041.86
2017-09-01T11:05:29.805Z,101039.75
2017-09-01T11:06:37.172Z,101039.52
2017-09-01T11:07:43.336Z,101033.55
2017-09-01T11:08:49.492Z,101037.05
2017-09-01T11:09:55.614Z,101038.84
2017-09-01T11:11:03.306Z,101039.24
2017-09-01T11:12:09.462Z,101042.83
2017-09-01T11:13:15.856Z,101043.77
2017-09-01T11:14:21.913Z,101035.17
2017-09-01T11:15:27.983Z,101034.05
2017-09-01T11:16:34.187Z,101037.80
2017-09-01T11:17:40.827Z,101034.63
2017-09-01T11:18:52.512Z,101031.20
2017-09-01T11:20:04.005Z,101026.09
2017-09-01T11:21:15.620Z,101027.77
2017-09-01T11:22:27.245Z,101031.55
2017-09-01T11:23:39.403Z,101028.27
2017-09-01T11:24:45.500Z,101021.05
2017-09-01T11:25:51.631Z,101022.45
2017-09-01T11:26:57.753Z,101023.70
2017-09-01T11:28:03.909Z,101020.35
2017-09-01T11:29:11.166Z,101019.69
2017-09-01T11:30:17.992Z,101020.73
2017-09-01T11:31:25.292Z,101020.35
2017-09-01T11:32:31.483Z,101016.61
2017-09-01T11:33:40.191Z,101021.48
2017-09-01T11:34:47.097Z,101020.16
2017-09-01T11:35:55.220Z,101017.45
2017-09-01T11:37:01.344Z,101019.61
2017-09-01T11:38:07.773Z,101018.66
2017-09-01T11:39:15.344Z,101018.17
2017-09-01T11:40:22.774Z,101020.75
2017-09-01T11:41:29.542Z,101017.83
2017-09-01T11:42:36.025Z,101015.58
2017-09-01T11:43:42.277Z,101016.08
2017-09-01T11:44:49.124Z,101011.58
2017-09-01T11:47:07.618Z,101010.69
2017-09-01T11:48:13.724Z,101013.30
2017-09-01T11:49:23.253Z,101011.25
2017-09-01T11:50:29.624Z,101010.65
2017-09-01T11:51:36.340Z,101007.44
2017-09-01T11:52:43.993Z,101010.30
2017-09-01T11:53:50.041Z,101005.93
2017-09-01T11:54:58.858Z,101006.14
2017-09-01T11:56:05.175Z,101010.27
2017-09-01T11:57:12.039Z,101009.56
2017-09-01T11:58:18.353Z,101008.08
2017-09-01T11:59:24.542Z,101006.72
2017-09-01T12:00:31.498Z,100998.10
2017-09-01T12:01:37.750Z,101001.77
2017-09-01T12:02:44.274Z,100998.91
2017-09-01T12:03:50.379Z,101001.51
2017-09-01T12:04:56.506Z,100998.26
2017-09-01T12:06:02.236Z,101002.02
2017-09-01T12:07:08.413Z,101001.85
2017-09-01T12:08:17.382Z,100997.06
2017-09-01T12:09:23.315Z,100997.37
2017-09-01T12:10:29.782Z,100993.86
2017-09-01T12:11:37.503Z,101000.80
2017-09-01T12:12:44.906Z,100991.08
2017-09-01T12:13:51.940Z,100988.73
2017-09-01T12:14:58.695Z,100992.86
2017-09-01T12:16:06.228Z,100988.59
2017-09-01T12:17:13.386Z,100985.44
2017-09-01T12:18:20.210Z,100988.22
2017-09-01T12:19:26.720Z,100984.18
2017-09-01T12:20:33.680Z,100981.78
2017-09-01T12:21:40.686Z,100976.67
2017-09-01T12:22:47.446Z,100975.97
2017-09-01T12:23:55.589Z,100976.80
2017-09-01T12:25:05.273Z,100980.25
2017-09-01T12:26:11.792Z,100986.98
2017-09-01T12:27:20.715Z,100982.19
2017-09-01T12:28:27.865Z,100976.88
2017-09-01T12:29:36.927Z,100984.07
2017-09-01T12:30:45.317Z,100979.29
2017-09-01T12:31:55.305Z,100977.05
2017-09-01T12:33:03.990Z,100979.80
2017-09-01T12:34:10.524Z,100974.92
2017-09-01T12:35:17.093Z,100973.45
2017-09-01T12:36:25.122Z,100968.52
2017-09-01T12:37:32.419Z,100958.44
2017-09-01T12:38:38.514Z,100968.00
2017-09-01T12:39:44.908Z,100965.16
2017-09-01T12:40:51.383Z,100964.09
2017-09-01T12:41:57.574Z,100965.59